Time;durP1;ratioP1;P1;durP2;ratioP2;P2;SDS_P1;SDS_P2;PMS_P1;PMS_P2;Temp;Humidity;BMP_temperature;BMP_pressure;BME280_temperature;BME280_humidity;BME280_pressure;Samples;Min_cycle;Max_cycle;Signal;HPM_P1;HPM_P2
2022/06/24 00:00:39;;;;;;;10.35;5.45;;;;;;;;;;4979891;28;20109;-75
2022/06/24 00:03:05;;;;;;;7.80;6.05;;;;;;;;;;4962471;28;20045;-75
2022/06/24 00:05:30;;;;;;;17.02;7.38;;;;;;;;;;4978869;28;21615;-75
2022/06/24 00:07:56;;;;;;;16.02;6.63;;;;;;;;;;4947044;28;20031;-75
2022/06/24 00:10:23;;;;;;;12.55;6.85;;;;;;;;;;4978827;28;20454;-75
2022/06/24 00:12:49;;;;;;;12.30;6.80;;;;;;;;;;4979453;28;20030;-75
2022/06/24 00:15:15;;;;;;;12.77;7.25;;;;;;;;;;4963584;28;20038;-75
2022/06/24 00:17:40;;;;;;;12.57;6.63;;;;;;;;;;4973872;28;20027;-75
2022/06/24 00:20:09;;;;;;;16.52;7.60;;;;;;;;;;4979729;28;21528;-75
2022/06/24 00:22:45;;;;;;;15.18;7.78;;;;;;;;;;4976829;28;20026;-75
2022/06/24 00:25:21;;;;;;;18.15;7.25;;;;;;;;;;4980171;28;20487;-76
2022/06/24 00:28:04;;;;;;;9.48;6.38;;;;;;;;;;4982062;28;20029;-75
2022/06/24 00:30:41;;;;;;;16.55;6.80;;;;;;;;;;4982933;28;20061;-75
2022/06/24 00:33:12;;;;;;;18.48;7.80;;;;;;;;;;4999378;28;20081;-76
2022/06/24 00:35:39;;;;;;;14.60;7.13;;;;;;;;;;4995682;28;20038;-76
2022/06/24 00:38:30;;;;;;;15.13;7.10;;;;;;;;;;5000061;28;20038;-76
2022/06/24 00:41:03;;;;;;;12.25;6.65;;;;;;;;;;4981386;28;20511;-75
2022/06/24 00:43:35;;;;;;;15.85;7.65;;;;;;;;;;4972591;28;20030;-75
2022/06/24 00:46:23;;;;;;;18.33;7.30;;;;;;;;;;4983385;28;20077;-75
2022/06/24 00:48:53;;;;;;;12.15;6.75;;;;;;;;;;4980543;28;20502;-75
2022/06/24 00:51:19;;;;;;;12.23;6.88;;;;;;;;;;4981580;28;20042;-75
2022/06/24 00:53:48;;;;;;;12.60;6.53;;;;;;;;;;4982502;28;20491;-75
2022/06/24 00:56:14;;;;;;;10.80;6.38;;;;;;;;;;4995847;28;20163;-75
2022/06/24 00:58:40;;;;;;;12.75;6.47;;;;;;;;;;4982040;28;20038;-76
2022/06/24 01:01:05;;;;;;;11.18;6.70;;;;;;;;;;4965737;28;20027;-75
2022/06/24 01:03:37;;;;;;;12.60;6.22;;;;;;;;;;4983199;28;20802;-75
2022/06/24 01:06:03;;;;;;;9.60;7.10;;;;;;;;;;4964211;28;20061;-75
2022/06/24 01:08:28;;;;;;;11.63;6.30;;;;;;;;;;4981872;28;20265;-75
2022/06/24 01:10:56;;;;;;;13.52;5.97;;;;;;;;;;4982038;28;20154;-75
2022/06/24 01:13:23;;;;;;;15.02;6.28;;;;;;;;;;4981909;28;20042;-75
2022/06/24 01:15:49;;;;;;;14.27;6.00;;;;;;;;;;4965256;28;20053;-75
2022/06/24 01:18:14;;;;;;;12.65;5.68;;;;;;;;;;4967201;28;20502;-75
2022/06/24 01:20:39;;;;;;;14.02;5.10;;;;;;;;;;4982717;28;20042;-76
2022/06/24 01:23:05;;;;;;;11.88;5.82;;;;;;;;;;4983083;28;20042;-76
2022/06/24 01:25:31;;;;;;;16.33;5.60;;;;;;;;;;4981158;28;20046;-75
2022/06/24 01:27:56;;;;;;;10.10;5.00;;;;;;;;;;4982400;28;20045;-75
2022/06/24 01:30:22;;;;;;;7.22;4.50;;;;;;;;;;4948719;28;20019;-76
2022/06/24 01:32:47;;;;;;;9.40;5.05;;;;;;;;;;4982301;28;20062;-76
2022/06/24 01:35:13;;;;;;;9.57;5.07;;;;;;;;;;4980290;28;20058;-75
2022/06/24 01:37:38;;;;;;;10.07;4.50;;;;;;;;;;4981511;28;20243;-76
2022/06/24 01:40:04;;;;;;;7.57;4.47;;;;;;;;;;4980652;28;20131;-75
2022/06/24 01:42:29;;;;;;;10.63;4.72;;;;;;;;;;4965402;28;20081;-75
2022/06/24 01:44:55;;;;;;;12.18;5.20;;;;;;;;;;4977436;28;20050;-75
2022/06/24 01:47:20;;;;;;;10.30;5.53;;;;;;;;;;4982237;28;20063;-75
2022/06/24 01:49:45;;;;;;;9.75;4.78;;;;;;;;;;4980175;28;20559;-75
2022/06/24 01:52:11;;;;;;;8.85;4.35;;;;;;;;;;4981644;28;20125;-76
2022/06/24 01:54:36;;;;;;;9.75;5.35;;;;;;;;;;4965785;28;20057;-76
2022/06/24 01:57:02;;;;;;;9.38;4.95;;;;;;;;;;4982047;28;20446;-75
2022/06/24 01:59:27;;;;;;;10.23;4.63;;;;;;;;;;4963662;28;20074;-76
2022/06/24 02:01:52;;;;;;;7.35;4.80;;;;;;;;;;4980720;28;20117;-75
2022/06/24 02:04:18;;;;;;;8.60;4.78;;;;;;;;;;4982855;28;20069;-75
2022/06/24 02:06:43;;;;;;;12.27;4.78;;;;;;;;;;4982161;28;20045;-76
2022/06/24 02:09:08;;;;;;;8.40;4.20;;;;;;;;;;4982710;28;20501;-75
2022/06/24 02:14:35;;;;;;;9.73;5.22;;;;;;;;;;4921408;29;20038;-75
2022/06/24 02:17:00;;;;;;;11.07;4.93;;;;;;;;;;4952207;28;20687;-76
2022/06/24 02:19:25;;;;;;;6.53;4.18;;;;;;;;;;4982073;28;20108;-76
2022/06/24 02:21:51;;;;;;;8.05;4.80;;;;;;;;;;4981183;28;20061;-75
2022/06/24 02:24:16;;;;;;;13.15;4.78;;;;;;;;;;4980445;28;20030;-76
2022/06/24 02:26:42;;;;;;;10.00;4.47;;;;;;;;;;4964627;28;20037;-75
2022/06/24 02:29:08;;;;;;;9.30;4.93;;;;;;;;;;4980224;28;20392;-75
2022/06/24 02:31:33;;;;;;;8.38;5.60;;;;;;;;;;4981260;28;20073;-75
2022/06/24 02:33:58;;;;;;;14.52;6.18;;;;;;;;;;4964064;28;20446;-75
2022/06/24 02:36:24;;;;;;;15.02;6.20;;;;;;;;;;4981542;28;20125;-75
2022/06/24 02:38:49;;;;;;;13.57;6.45;;;;;;;;;;4981012;28;20050;-75
2022/06/24 02:41:14;;;;;;;9.40;5.55;;;;;;;;;;4981740;28;20019;-75
2022/06/24 02:43:40;;;;;;;14.45;5.85;;;;;;;;;;4981435;28;20038;-75
2022/06/24 02:46:07;;;;;;;7.35;5.78;;;;;;;;;;4964596;28;20119;-76
2022/06/24 02:48:33;;;;;;;10.30;5.88;;;;;;;;;;4979878;28;20457;-76
2022/06/24 02:51:03;;;;;;;10.45;4.95;;;;;;;;;;4990392;28;20044;-76
2022/06/24 02:53:29;;;;;;;8.60;5.70;;;;;;;;;;5002591;28;20029;-75
2022/06/24 02:55:57;;;;;;;7.97;5.97;;;;;;;;;;5018999;28;21405;-75
2022/06/24 02:58:22;;;;;;;10.85;5.40;;;;;;;;;;5020846;28;20033;-75
2022/06/24 03:00:48;;;;;;;14.60;9.55;;;;;;;;;;5002165;28;20041;-76
2022/06/24 03:03:14;;;;;;;19.30;11.80;;;;;;;;;;5020010;28;20064;-76
2022/06/24 03:05:40;;;;;;;18.50;13.63;;;;;;;;;;5002937;28;20422;-75
2022/06/24 03:08:06;;;;;;;22.65;17.23;;;;;;;;;;5020172;28;20042;-75
2022/06/24 03:10:31;;;;;;;22.92;19.92;;;;;;;;;;4986424;28;20056;-75
2022/06/24 03:12:56;;;;;;;31.60;22.75;;;;;;;;;;5003406;28;20053;-75
2022/06/24 03:15:22;;;;;;;32.92;24.90;;;;;;;;;;5020340;28;20791;-76
2022/06/24 03:17:47;;;;;;;32.08;26.00;;;;;;;;;;4984267;28;20589;-75
2022/06/24 03:20:12;;;;;;;33.25;26.27;;;;;;;;;;4983016;28;22895;-76
2022/06/24 03:22:38;;;;;;;40.97;29.05;;;;;;;;;;4966918;28;20036;-75
2022/06/24 03:25:04;;;;;;;34.10;30.25;;;;;;;;;;4983368;28;20502;-75
2022/06/24 03:27:29;;;;;;;34.65;29.02;;;;;;;;;;4990699;28;20052;-75
2022/06/24 03:29:54;;;;;;;34.75;30.38;;;;;;;;;;5002361;28;20036;-75
2022/06/24 03:32:20;;;;;;;38.65;30.70;;;;;;;;;;5019293;28;20100;-76
2022/06/24 03:34:45;;;;;;;37.78;30.23;;;;;;;;;;5015618;28;20034;-75
2022/06/24 03:37:11;;;;;;;33.42;28.10;;;;;;;;;;4978765;28;20521;-75
2022/06/24 03:39:36;;;;;;;29.10;25.80;;;;;;;;;;4984950;28;20065;-75
2022/06/24 03:42:02;;;;;;;29.75;25.48;;;;;;;;;;4979894;28;20094;-75
2022/06/24 03:44:27;;;;;;;26.00;23.23;;;;;;;;;;5000223;28;20057;-75
2022/06/24 03:46:53;;;;;;;24.75;22.00;;;;;;;;;;4991274;28;20545;-75
2022/06/24 03:49:19;;;;;;;30.13;21.45;;;;;;;;;;4999998;28;20053;-75
2022/06/24 03:51:45;;;;;;;20.92;17.40;;;;;;;;;;4982196;28;20049;-75
2022/06/24 03:54:10;;;;;;;19.17;16.25;;;;;;;;;;4999986;28;20132;-75
2022/06/24 03:56:35;;;;;;;21.60;15.98;;;;;;;;;;4999333;28;20028;-75
2022/06/24 03:59:01;;;;;;;21.50;14.02;;;;;;;;;;4982984;28;20053;-75
2022/06/24 04:01:26;;;;;;;21.20;13.25;;;;;;;;;;4982583;28;20501;-75
2022/06/24 04:03:52;;;;;;;14.38;11.85;;;;;;;;;;4965923;28;20149;-75
2022/06/24 04:06:18;;;;;;;11.98;10.48;;;;;;;;;;5002979;28;20038;-75
2022/06/24 04:08:43;;;;;;;12.88;9.55;;;;;;;;;;4982767;28;20629;-75
2022/06/24 04:11:14;;;;;;;13.52;10.10;;;;;;;;;;4981010;28;20153;-76
2022/06/24 04:13:40;;;;;;;14.88;9.85;;;;;;;;;;4983809;28;20514;-76
2022/06/24 04:16:05;;;;;;;13.70;9.55;;;;;;;;;;5001077;28;20036;-76
2022/06/24 04:18:31;;;;;;;11.15;8.13;;;;;;;;;;4953346;28;20033;-75
2022/06/24 04:20:56;;;;;;;12.98;8.45;;;;;;;;;;4985323;28;20118;-76
2022/06/24 04:23:22;;;;;;;14.85;8.85;;;;;;;;;;4980733;28;20033;-75
2022/06/24 04:25:47;;;;;;;10.90;8.35;;;;;;;;;;5005969;28;20064;-76
2022/06/24 04:28:12;;;;;;;10.30;8.55;;;;;;;;;;5018276;28;20038;-75
2022/06/24 04:30:38;;;;;;;13.02;8.50;;;;;;;;;;4991203;28;20117;-76
2022/06/24 04:33:03;;;;;;;9.45;8.27;;;;;;;;;;4990741;28;20022;-76
2022/06/24 04:35:29;;;;;;;10.20;9.07;;;;;;;;;;4978938;28;20064;-75
2022/06/24 04:37:54;;;;;;;10.35;8.20;;;;;;;;;;5006791;28;20057;-76
2022/06/24 04:40:19;;;;;;;10.30;8.88;;;;;;;;;;5008065;28;20095;-76
2022/06/24 04:42:45;;;;;;;14.05;9.27;;;;;;;;;;5008430;28;20489;-75
2022/06/24 04:45:11;;;;;;;11.95;9.40;;;;;;;;;;4973502;28;20235;-75
2022/06/24 04:47:36;;;;;;;11.13;8.35;;;;;;;;;;4990612;28;20030;-75
2022/06/24 04:50:02;;;;;;;11.15;8.77;;;;;;;;;;4998608;28;20026;-75
2022/06/24 04:52:27;;;;;;;10.70;9.40;;;;;;;;;;4990535;28;20405;-75
2022/06/24 04:54:53;;;;;;;11.13;8.95;;;;;;;;;;4974209;28;20050;-76
2022/06/24 04:57:18;;;;;;;10.05;8.45;;;;;;;;;;4973601;28;20520;-76
2022/06/24 04:59:43;;;;;;;10.25;8.68;;;;;;;;;;4957864;28;20050;-76
2022/06/24 05:02:09;;;;;;;9.07;8.18;;;;;;;;;;5007548;28;20053;-76
2022/06/24 05:04:35;;;;;;;11.13;8.38;;;;;;;;;;4990644;28;20064;-76
2022/06/24 05:07:00;;;;;;;8.63;7.35;;;;;;;;;;4973499;28;20030;-76
2022/06/24 05:09:26;;;;;;;10.65;7.38;;;;;;;;;;4973762;28;20045;-76
2022/06/24 05:11:51;;;;;;;11.52;8.63;;;;;;;;;;5007443;28;20128;-76
2022/06/24 05:14:17;;;;;;;11.90;8.10;;;;;;;;;;5008195;28;20087;-76
2022/06/24 05:16:43;;;;;;;9.38;8.40;;;;;;;;;;4989868;28;20021;-76
2022/06/24 05:19:09;;;;;;;9.90;7.90;;;;;;;;;;4958692;28;20105;-76
2022/06/24 05:21:34;;;;;;;10.40;8.05;;;;;;;;;;4989663;28;20091;-76
2022/06/24 05:23:59;;;;;;;11.02;8.65;;;;;;;;;;4989610;28;20109;-76
2022/06/24 05:26:25;;;;;;;9.75;8.75;;;;;;;;;;4989741;28;20026;-75
2022/06/24 05:28:50;;;;;;;11.20;9.00;;;;;;;;;;5007443;28;20046;-75
2022/06/24 05:31:15;;;;;;;13.55;10.20;;;;;;;;;;4972637;28;20073;-75
2022/06/24 05:33:41;;;;;;;13.43;10.00;;;;;;;;;;4989185;28;20042;-76
2022/06/24 05:36:06;;;;;;;13.85;10.15;;;;;;;;;;4989355;28;20519;-75
2022/06/24 05:38:32;;;;;;;13.23;11.00;;;;;;;;;;5007449;28;20037;-75
2022/06/24 05:40:57;;;;;;;13.65;11.23;;;;;;;;;;4989450;28;20028;-76
2022/06/24 05:43:23;;;;;;;12.80;10.75;;;;;;;;;;4989136;28;20056;-76
2022/06/24 05:45:48;;;;;;;14.30;11.65;;;;;;;;;;5006657;28;20505;-76
2022/06/24 05:48:14;;;;;;;15.50;10.45;;;;;;;;;;4973428;28;20034;-76
2022/06/24 05:50:39;;;;;;;15.93;10.57;;;;;;;;;;4988852;28;20045;-76
2022/06/24 05:55:49;;;;;;;10.93;9.75;;;;;;;;;;4997739;28;20385;-76
2022/06/24 05:58:15;;;;;;;13.75;10.88;;;;;;;;;;5026289;28;24744;-76
2022/06/24 06:00:40;;;;;;;12.55;9.93;;;;;;;;;;5025921;28;20028;-76
2022/06/24 06:03:05;;;;;;;11.88;9.88;;;;;;;;;;4976326;28;20104;-76
2022/06/24 06:05:31;;;;;;;13.10;10.15;;;;;;;;;;4991796;28;20033;-75
2022/06/24 06:07:56;;;;;;;12.25;9.65;;;;;;;;;;4992529;28;20048;-75
2022/06/24 06:10:21;;;;;;;11.32;10.02;;;;;;;;;;5026001;28;20056;-75
2022/06/24 06:12:47;;;;;;;10.88;9.70;;;;;;;;;;5008956;28;20094;-75
2022/06/24 06:15:12;;;;;;;12.70;10.48;;;;;;;;;;5008150;28;20104;-75
2022/06/24 06:17:37;;;;;;;11.32;10.07;;;;;;;;;;5008671;28;20117;-75
2022/06/24 06:20:03;;;;;;;13.48;11.70;;;;;;;;;;5008006;28;20072;-75
2022/06/24 06:22:29;;;;;;;15.95;10.88;;;;;;;;;;5026324;28;20111;-75
2022/06/24 06:24:55;;;;;;;11.88;10.65;;;;;;;;;;5025979;28;20519;-75
2022/06/24 06:27:21;;;;;;;16.15;10.55;;;;;;;;;;5026331;28;20044;-75
2022/06/24 06:29:46;;;;;;;11.57;9.63;;;;;;;;;;5008029;28;20105;-75
2022/06/24 06:32:12;;;;;;;13.65;10.45;;;;;;;;;;4991811;28;20474;-75
2022/06/24 06:34:37;;;;;;;11.07;9.90;;;;;;;;;;5007130;28;20105;-75
2022/06/24 06:37:03;;;;;;;11.98;9.98;;;;;;;;;;5007832;28;20068;-76
2022/06/24 06:39:28;;;;;;;11.05;9.88;;;;;;;;;;5025377;28;20477;-75
2022/06/24 06:41:53;;;;;;;14.73;10.48;;;;;;;;;;4991748;28;20045;-75
2022/06/24 06:44:19;;;;;;;12.00;9.35;;;;;;;;;;4991429;28;20057;-76
2022/06/24 06:46:45;;;;;;;12.65;10.45;;;;;;;;;;5008162;28;20084;-75
2022/06/24 06:49:10;;;;;;;15.02;10.27;;;;;;;;;;5025139;28;20477;-75
2022/06/24 06:51:35;;;;;;;12.88;9.15;;;;;;;;;;5007502;28;20134;-76
2022/06/24 06:54:01;;;;;;;13.18;10.32;;;;;;;;;;5007526;28;20026;-76
2022/06/24 06:56:26;;;;;;;11.85;9.48;;;;;;;;;;4991425;28;20029;-75
2022/06/24 06:58:51;;;;;;;11.88;10.00;;;;;;;;;;5007252;28;20049;-75
2022/06/24 07:01:17;;;;;;;11.07;9.95;;;;;;;;;;5025279;28;20072;-75
2022/06/24 07:03:42;;;;;;;12.57;9.63;;;;;;;;;;5006940;28;20489;-75
2022/06/24 07:06:07;;;;;;;11.00;9.32;;;;;;;;;;5024364;28;20087;-75
2022/06/24 07:08:33;;;;;;;14.05;9.50;;;;;;;;;;4990581;28;20464;-75
2022/06/24 07:10:58;;;;;;;12.63;9.23;;;;;;;;;;4991288;28;20052;-75
2022/06/24 07:13:24;;;;;;;11.10;8.52;;;;;;;;;;5007488;28;20060;-75
2022/06/24 07:15:49;;;;;;;11.70;8.10;;;;;;;;;;5024780;28;20026;-76
2022/06/24 07:18:14;;;;;;;11.05;8.07;;;;;;;;;;4990931;28;20033;-75
2022/06/24 07:20:42;;;;;;;9.43;7.15;;;;;;;;;;5024236;28;20320;-75
2022/06/24 07:23:07;;;;;;;10.23;7.50;;;;;;;;;;5024594;28;20489;-75
2022/06/24 07:25:33;;;;;;;11.77;7.82;;;;;;;;;;5007143;28;20033;-75
2022/06/24 07:27:58;;;;;;;14.18;7.75;;;;;;;;;;4990514;28;20561;-75
2022/06/24 07:30:24;;;;;;;13.40;7.65;;;;;;;;;;5007443;28;20558;-75
2022/06/24 07:32:49;;;;;;;9.07;6.78;;;;;;;;;;4990322;28;20176;-75
2022/06/24 07:35:14;;;;;;;10.63;7.65;;;;;;;;;;5007274;28;20053;-75
2022/06/24 07:37:40;;;;;;;12.30;8.30;;;;;;;;;;5007066;28;20109;-75
2022/06/24 07:40:06;;;;;;;13.10;8.40;;;;;;;;;;5005876;28;20699;-75
2022/06/24 07:42:31;;;;;;;9.52;7.70;;;;;;;;;;5023788;28;20079;-76
2022/06/24 07:44:57;;;;;;;9.20;7.57;;;;;;;;;;5024269;28;20064;-76
2022/06/24 07:47:22;;;;;;;8.00;7.20;;;;;;;;;;5006911;28;20331;-76
2022/06/24 07:49:47;;;;;;;10.63;8.30;;;;;;;;;;5006714;28;20022;-76
2022/06/24 07:52:13;;;;;;;9.13;8.23;;;;;;;;;;5006539;28;20084;-77
2022/06/24 07:54:38;;;;;;;9.05;7.75;;;;;;;;;;4990053;28;20120;-77
2022/06/24 07:57:04;;;;;;;9.18;7.40;;;;;;;;;;4990472;28;20478;-77
2022/06/24 07:59:34;;;;;;;8.52;7.60;;;;;;;;;;4990197;28;20041;-77
2022/06/24 08:02:01;;;;;;;11.93;8.07;;;;;;;;;;4990913;28;20025;-76
2022/06/24 08:04:30;;;;;;;11.63;8.30;;;;;;;;;;4990822;28;20148;-76
2022/06/24 08:06:55;;;;;;;10.55;8.05;;;;;;;;;;5006761;28;20025;-76
2022/06/24 08:09:21;;;;;;;12.07;7.97;;;;;;;;;;4990965;28;20095;-76
2022/06/24 08:11:46;;;;;;;11.20;7.47;;;;;;;;;;4989762;28;20164;-77
2022/06/24 08:14:13;;;;;;;17.15;7.68;;;;;;;;;;4991076;28;20354;-76
2022/06/24 08:16:38;;;;;;;16.05;7.78;;;;;;;;;;5024009;28;20085;-75
2022/06/24 08:19:04;;;;;;;11.25;7.72;;;;;;;;;;4990791;28;20211;-75
2022/06/24 08:21:29;;;;;;;14.40;8.00;;;;;;;;;;5006707;28;20026;-75
2022/06/24 08:23:55;;;;;;;12.00;7.07;;;;;;;;;;4990988;28;20026;-75
2022/06/24 08:26:20;;;;;;;11.18;7.20;;;;;;;;;;5006551;28;20030;-75
2022/06/24 08:28:45;;;;;;;10.88;6.35;;;;;;;;;;4974760;28;20038;-75
2022/06/24 08:31:11;;;;;;;12.57;6.05;;;;;;;;;;5006719;28;20403;-75
2022/06/24 08:33:36;;;;;;;12.45;6.93;;;;;;;;;;5007192;28;20049;-75
2022/06/24 08:36:02;;;;;;;14.73;7.80;;;;;;;;;;5023805;28;20034;-74
2022/06/24 08:38:27;;;;;;;16.27;7.63;;;;;;;;;;4990567;28;20025;-74
2022/06/24 08:40:54;;;;;;;19.17;8.40;;;;;;;;;;5006369;28;20108;-75
2022/06/24 08:43:22;;;;;;;13.88;7.90;;;;;;;;;;5006309;28;20033;-74
2022/06/24 08:45:48;;;;;;;15.15;9.02;;;;;;;;;;5006245;28;20030;-75
2022/06/24 08:48:13;;;;;;;14.73;7.30;;;;;;;;;;5006700;28;21834;-75
2022/06/24 08:50:39;;;;;;;10.50;5.82;;;;;;;;;;4989658;28;20567;-75
2022/06/24 08:53:05;;;;;;;8.43;6.05;;;;;;;;;;5006662;28;22130;-75
2022/06/24 08:55:34;;;;;;;8.82;5.35;;;;;;;;;;5005861;28;20038;-75
2022/06/24 08:57:59;;;;;;;8.98;5.88;;;;;;;;;;5005885;28;20057;-74
2022/06/24 09:00:25;;;;;;;8.68;6.13;;;;;;;;;;4993680;28;20105;-74
2022/06/24 09:02:50;;;;;;;10.13;5.30;;;;;;;;;;5027330;28;20052;-74
2022/06/24 09:05:16;;;;;;;10.07;5.90;;;;;;;;;;4977497;28;20030;-74
2022/06/24 09:07:41;;;;;;;10.80;6.07;;;;;;;;;;5009200;28;20044;-75
2022/06/24 09:10:12;;;;;;;6.70;4.55;;;;;;;;;;4993193;28;20108;-75
2022/06/24 09:12:41;;;;;;;17.00;5.35;;;;;;;;;;5010644;28;20056;-74
2022/06/24 09:15:08;;;;;;;9.13;5.13;;;;;;;;;;4993360;28;20171;-74
2022/06/24 09:17:33;;;;;;;7.25;5.60;;;;;;;;;;4993279;28;20388;-75
2022/06/24 09:20:09;;;;;;;7.63;6.20;;;;;;;;;;5009850;28;20022;-74
2022/06/24 09:22:35;;;;;;;8.70;6.88;;;;;;;;;;5009325;28;20482;-74
2022/06/24 09:25:03;;;;;;;12.25;6.85;;;;;;;;;;4994089;28;20259;-74
2022/06/24 09:27:28;;;;;;;13.40;7.68;;;;;;;;;;4981137;28;20022;-74
2022/06/24 09:29:54;;;;;;;9.55;7.53;;;;;;;;;;4990458;28;24547;-74
2022/06/24 09:32:19;;;;;;;11.00;7.78;;;;;;;;;;4973192;28;20568;-74
2022/06/24 09:35:06;;;;;;;10.98;8.20;;;;;;;;;;4990414;28;20040;-74
2022/06/24 09:37:45;;;;;;;11.48;8.82;;;;;;;;;;4975285;28;20056;-74
2022/06/24 09:40:21;;;;;;;11.25;9.52;;;;;;;;;;5008860;28;20041;-73
2022/06/24 09:43:02;;;;;;;10.25;9.25;;;;;;;;;;4992451;28;20075;-73
2022/06/24 09:45:47;;;;;;;13.30;10.25;;;;;;;;;;4992877;28;20394;-74
2022/06/24 09:48:27;;;;;;;12.95;11.60;;;;;;;;;;5008533;28;20061;-73
2022/06/24 09:50:58;;;;;;;15.48;10.27;;;;;;;;;;5026336;28;20052;-73
2022/06/24 09:53:27;;;;;;;12.55;10.65;;;;;;;;;;5008813;28;20037;-73
2022/06/24 09:55:53;;;;;;;12.57;10.73;;;;;;;;;;4975579;28;20037;-73
2022/06/24 09:58:18;;;;;;;13.40;10.90;;;;;;;;;;5027051;28;20474;-73
2022/06/24 10:00:44;;;;;;;10.55;9.02;;;;;;;;;;4992254;28;20051;-73
2022/06/24 10:03:11;;;;;;;10.00;8.77;;;;;;;;;;4992458;28;20029;-73
2022/06/24 10:05:41;;;;;;;9.77;8.88;;;;;;;;;;5026558;28;20108;-74
2022/06/24 10:08:09;;;;;;;11.23;8.95;;;;;;;;;;4992967;28;20040;-73
2022/06/24 10:10:35;;;;;;;10.50;8.63;;;;;;;;;;5025761;28;20033;-74
2022/06/24 10:13:04;;;;;;;9.48;7.57;;;;;;;;;;4992330;28;20067;-74
2022/06/24 10:15:29;;;;;;;12.00;8.25;;;;;;;;;;4991774;28;20018;-74
2022/06/24 10:17:54;;;;;;;11.30;7.35;;;;;;;;;;5008781;28;20374;-74
2022/06/24 10:20:20;;;;;;;8.95;7.55;;;;;;;;;;5008741;28;20041;-74
2022/06/24 10:22:46;;;;;;;9.45;6.68;;;;;;;;;;4976542;28;20053;-74
2022/06/24 10:25:20;;;;;;;9.25;7.05;;;;;;;;;;5025921;28;20040;-73
2022/06/24 10:28:06;;;;;;;8.55;6.88;;;;;;;;;;5008185;28;20152;-73
2022/06/24 10:30:50;;;;;;;8.98;7.07;;;;;;;;;;4988598;28;20113;-73
2022/06/24 10:33:20;;;;;;;9.23;6.97;;;;;;;;;;4988968;28;20042;-73
2022/06/24 10:36:05;;;;;;;8.80;6.40;;;;;;;;;;4988580;28;20029;-73
2022/06/24 10:38:35;;;;;;;7.93;6.35;;;;;;;;;;4988335;28;20498;-73
2022/06/24 10:41:01;;;;;;;11.30;6.45;;;;;;;;;;5005799;28;20105;-73
2022/06/24 10:43:34;;;;;;;10.30;6.03;;;;;;;;;;5005828;28;20137;-73
2022/06/24 10:46:11;;;;;;;10.50;6.72;;;;;;;;;;5005326;28;20029;-73
2022/06/24 10:48:42;;;;;;;8.73;6.28;;;;;;;;;;4988118;28;20516;-74
2022/06/24 10:51:18;;;;;;;8.00;6.55;;;;;;;;;;4987901;28;20116;-74
2022/06/24 10:54:01;;;;;;;6.85;6.15;;;;;;;;;;5005861;28;20429;-74
2022/06/24 10:56:46;;;;;;;9.00;6.65;;;;;;;;;;5005431;28;20030;-74
2022/06/24 10:59:15;;;;;;;7.22;6.32;;;;;;;;;;4987911;28;20022;-74
2022/06/24 11:01:42;;;;;;;8.35;6.03;;;;;;;;;;4971945;28;20037;-74
2022/06/24 11:04:07;;;;;;;6.82;6.13;;;;;;;;;;5005425;28;20022;-74
2022/06/24 11:06:33;;;;;;;7.18;5.72;;;;;;;;;;4987571;28;20080;-75
2022/06/24 11:09:07;;;;;;;6.63;6.03;;;;;;;;;;4988417;28;20541;-75
2022/06/24 11:11:33;;;;;;;9.25;6.65;;;;;;;;;;5005188;28;20038;-75
2022/06/24 11:13:59;;;;;;;8.23;6.40;;;;;;;;;;4987922;28;20378;-75
2022/06/24 11:16:28;;;;;;;7.45;6.03;;;;;;;;;;5004945;28;20527;-75
2022/06/24 11:18:53;;;;;;;8.35;6.60;;;;;;;;;;5004769;28;20030;-75
2022/06/24 11:21:19;;;;;;;7.15;6.43;;;;;;;;;;4971165;28;20034;-75
2022/06/24 11:23:48;;;;;;;7.72;6.50;;;;;;;;;;5004946;28;20038;-75
2022/06/24 11:26:17;;;;;;;9.88;6.45;;;;;;;;;;4971561;28;20053;-75
2022/06/24 11:28:48;;;;;;;7.68;6.70;;;;;;;;;;5005570;28;21192;-75
2022/06/24 11:31:16;;;;;;;10.27;6.88;;;;;;;;;;4987863;28;20096;-75
2022/06/24 11:33:42;;;;;;;9.57;7.10;;;;;;;;;;4971454;28;20108;-75
2022/06/24 11:36:07;;;;;;;7.88;7.07;;;;;;;;;;5005141;28;20113;-75
2022/06/24 11:38:36;;;;;;;9.10;6.47;;;;;;;;;;5004697;28;20053;-75
2022/06/24 11:41:02;;;;;;;9.35;7.47;;;;;;;;;;5004462;28;25885;-75
2022/06/24 11:43:27;;;;;;;8.52;6.28;;;;;;;;;;5004576;28;20406;-75
2022/06/24 11:45:57;;;;;;;10.55;7.40;;;;;;;;;;4971036;28;20049;-75
2022/06/24 11:48:23;;;;;;;7.40;6.30;;;;;;;;;;4987491;28;20034;-76
2022/06/24 11:50:49;;;;;;;11.13;7.68;;;;;;;;;;4986750;28;20083;-75
2022/06/24 11:53:16;;;;;;;7.75;6.80;;;;;;;;;;4971946;28;20041;-75
2022/06/24 11:55:41;;;;;;;10.52;7.72;;;;;;;;;;5004226;28;20393;-75
2022/06/24 11:58:13;;;;;;;9.82;7.65;;;;;;;;;;4987530;28;20022;-76
2022/06/24 12:00:39;;;;;;;9.38;7.85;;;;;;;;;;5004590;28;20033;-76
2022/06/24 12:03:06;;;;;;;9.02;7.60;;;;;;;;;;4971215;28;20553;-76
2022/06/24 12:05:35;;;;;;;9.60;7.72;;;;;;;;;;4986954;28;20398;-76
2022/06/24 12:08:00;;;;;;;9.35;7.40;;;;;;;;;;4987153;28;20100;-76
2022/06/24 12:10:26;;;;;;;10.00;8.07;;;;;;;;;;4987554;28;20477;-76
2022/06/24 12:12:57;;;;;;;9.07;7.80;;;;;;;;;;5004497;28;20038;-76
2022/06/24 12:15:47;;;;;;;10.25;7.38;;;;;;;;;;5004447;28;20390;-74
2022/06/24 12:18:13;;;;;;;8.90;8.00;;;;;;;;;;4998966;28;20120;-74
2022/06/24 12:20:38;;;;;;;7.63;6.78;;;;;;;;;;5023393;28;20951;-74
2022/06/24 12:23:17;;;;;;;8.15;7.28;;;;;;;;;;5006230;28;20028;-75
2022/06/24 12:25:44;;;;;;;10.05;7.90;;;;;;;;;;5006692;28;20030;-75
2022/06/24 12:28:15;;;;;;;9.98;8.75;;;;;;;;;;5006488;28;20394;-74
2022/06/24 12:30:41;;;;;;;12.40;8.00;;;;;;;;;;5006302;28;20469;-75
2022/06/24 12:33:10;;;;;;;13.80;9.43;;;;;;;;;;5007456;28;20172;-74
2022/06/24 12:35:37;;;;;;;11.13;9.50;;;;;;;;;;5027711;28;20029;-74
2022/06/24 12:38:04;;;;;;;10.20;8.77;;;;;;;;;;4993944;28;20032;-75
2022/06/24 12:40:29;;;;;;;8.27;7.40;;;;;;;;;;4994432;28;20026;-75
2022/06/24 12:43:08;;;;;;;11.90;9.23;;;;;;;;;;4993561;28;20084;-75
2022/06/24 12:45:36;;;;;;;11.52;9.07;;;;;;;;;;4994149;28;20029;-75
2022/06/24 12:51:05;;;;;;;11.10;9.73;;;;;;;;;;5011907;28;20051;-75
2022/06/24 12:53:31;;;;;;;10.15;9.13;;;;;;;;;;5010207;28;20075;-75
2022/06/24 12:55:57;;;;;;;9.60;8.70;;;;;;;;;;4993685;28;21073;-75
2022/06/24 12:58:23;;;;;;;9.77;8.80;;;;;;;;;;5027315;28;20478;-75
2022/06/24 13:00:48;;;;;;;9.98;8.98;;;;;;;;;;5009700;28;22409;-75
2022/06/24 13:03:17;;;;;;;8.38;7.57;;;;;;;;;;4993980;28;20052;-75
2022/06/24 13:05:43;;;;;;;9.93;8.95;;;;;;;;;;5009565;28;20172;-75
2022/06/24 13:08:08;;;;;;;11.48;9.75;;;;;;;;;;5010092;28;20081;-75
2022/06/24 13:10:35;;;;;;;11.70;10.48;;;;;;;;;;5027265;28;20450;-75
2022/06/24 13:13:00;;;;;;;11.38;9.95;;;;;;;;;;5009837;28;20044;-75
2022/06/24 13:15:26;;;;;;;10.38;9.23;;;;;;;;;;4993030;28;20509;-75
2022/06/24 13:17:51;;;;;;;10.02;9.13;;;;;;;;;;4977766;28;20109;-75
2022/06/24 13:20:16;;;;;;;10.68;9.63;;;;;;;;;;5009251;28;20114;-75
2022/06/24 13:22:45;;;;;;;11.98;10.85;;;;;;;;;;5009609;28;20026;-75
2022/06/24 13:25:11;;;;;;;11.07;9.98;;;;;;;;;;5009527;28;20025;-75
2022/06/24 13:27:38;;;;;;;11.23;10.07;;;;;;;;;;4992503;28;20484;-75
2022/06/24 13:30:04;;;;;;;10.50;8.95;;;;;;;;;;4993691;28;20363;-76
2022/06/24 13:32:30;;;;;;;10.50;9.50;;;;;;;;;;5009725;28;20123;-76
2022/06/24 13:34:55;;;;;;;9.40;7.75;;;;;;;;;;5009726;28;20108;-76
2022/06/24 13:37:20;;;;;;;12.60;8.48;;;;;;;;;;4976476;28;20056;-75
2022/06/24 13:39:46;;;;;;;10.18;9.23;;;;;;;;;;4992742;28;20067;-76
2022/06/24 13:42:11;;;;;;;9.93;8.93;;;;;;;;;;5008842;28;20109;-75
2022/06/24 13:44:36;;;;;;;11.88;9.50;;;;;;;;;;5026444;28;20455;-76
2022/06/24 13:47:02;;;;;;;10.50;9.40;;;;;;;;;;5008650;28;20069;-76
2022/06/24 13:49:28;;;;;;;10.10;9.10;;;;;;;;;;4976833;28;20029;-75
2022/06/24 13:51:53;;;;;;;11.38;9.07;;;;;;;;;;5025893;28;20042;-76
2022/06/24 13:54:19;;;;;;;10.52;9.52;;;;;;;;;;4992785;28;20033;-74
2022/06/24 13:56:44;;;;;;;11.15;10.05;;;;;;;;;;5008485;28;20048;-75
2022/06/24 13:59:11;;;;;;;9.27;8.38;;;;;;;;;;5026166;28;20112;-75
2022/06/24 14:01:36;;;;;;;10.95;10.00;;;;;;;;;;4992518;28;20026;-75
2022/06/24 14:04:01;;;;;;;11.93;10.82;;;;;;;;;;4992741;28;20025;-74
2022/06/24 14:06:27;;;;;;;12.18;11.07;;;;;;;;;;5025808;28;20120;-76
2022/06/24 14:08:52;;;;;;;14.00;12.20;;;;;;;;;;5008679;28;20087;-76
2022/06/24 14:11:18;;;;;;;12.02;10.93;;;;;;;;;;4992709;28;20076;-74
2022/06/24 14:13:43;;;;;;;11.48;10.27;;;;;;;;;;5026495;28;20477;-74
2022/06/24 14:16:08;;;;;;;12.55;11.40;;;;;;;;;;4992511;28;20106;-74
2022/06/24 14:18:35;;;;;;;11.73;10.45;;;;;;;;;;5008339;28;20104;-74
2022/06/24 14:21:02;;;;;;;12.10;10.90;;;;;;;;;;4992302;28;20482;-74
2022/06/24 14:26:11;;;;;;;10.38;9.30;;;;;;;;;;5010468;28;20497;-75
2022/06/24 14:28:36;;;;;;;12.30;9.70;;;;;;;;;;5008073;28;20053;-75
2022/06/24 14:31:04;;;;;;;10.50;9.40;;;;;;;;;;5025307;28;20482;-74
2022/06/24 14:33:29;;;;;;;11.30;8.93;;;;;;;;;;5008085;28;20033;-74
2022/06/24 14:35:54;;;;;;;12.77;9.95;;;;;;;;;;4975833;28;20416;-75
2022/06/24 14:41:04;;;;;;;8.60;6.90;;;;;;;;;;5025876;28;20436;-75
2022/06/24 14:43:29;;;;;;;7.72;5.90;;;;;;;;;;5008217;28;20319;-75